createdAt,value
2019-05-18T00:02:08.461Z,15.70
2019-05-18T00:04:36.918Z,15.80
2019-05-18T00:07:05.327Z,15.80
2019-05-18T00:09:33.747Z,15.70
2019-05-18T00:12:02.171Z,15.70
2019-05-18T00:14:30.521Z,15.80
2019-05-18T00:16:58.880Z,15.70
2019-05-18T00:19:27.287Z,15.70
2019-05-18T00:21:55.632Z,15.70
2019-05-18T00:24:24.069Z,15.70
2019-05-18T00:26:52.555Z,15.70
2019-05-18T00:29:21.041Z,15.70
2019-05-18T00:31:49.483Z,15.60
2019-05-18T00:34:17.900Z,15.60
2019-05-18T00:36:46.389Z,15.60
2019-05-18T00:39:14.853Z,15.50
2019-05-18T00:41:45.488Z,15.40
2019-05-18T00:44:13.418Z,15.40
2019-05-18T00:46:41.856Z,15.40
2019-05-18T00:49:10.271Z,15.40
2019-05-18T00:51:38.731Z,15.40
2019-05-18T00:54:07.259Z,15.40
2019-05-18T00:56:35.666Z,15.30
2019-05-18T00:59:04.234Z,15.30
2019-05-18T01:01:32.729Z,15.30
2019-05-18T01:04:01.223Z,15.30
2019-05-18T01:06:29.646Z,15.30
2019-05-18T01:08:58.088Z,15.20
2019-05-18T01:11:26.618Z,15.30
2019-05-18T01:13:55.087Z,15.30
2019-05-18T01:16:23.663Z,15.30
2019-05-18T01:18:52.113Z,15.30
2019-05-18T01:21:20.580Z,15.20
2019-05-18T01:23:49.104Z,15.20
2019-05-18T01:26:17.611Z,15.20
2019-05-18T01:28:46.036Z,15.20
2019-05-18T01:31:14.460Z,15.20
2019-05-18T01:33:42.969Z,15.20
2019-05-18T01:36:11.383Z,15.20
2019-05-18T01:38:39.833Z,15.20
2019-05-18T01:41:08.321Z,15.20
2019-05-18T01:43:36.746Z,15.20
2019-05-18T01:46:05.331Z,15.10
2019-05-18T01:48:33.897Z,15.20
2019-05-18T01:51:02.350Z,15.10
2019-05-18T01:53:30.862Z,15.10
2019-05-18T01:55:59.293Z,15.10
2019-05-18T01:58:27.758Z,15.20
2019-05-18T02:00:56.260Z,15.10
2019-05-18T02:03:26.052Z,15.10
2019-05-18T02:05:54.564Z,15.00
2019-05-18T02:08:23.002Z,15.10
2019-05-18T02:10:51.438Z,15.00
2019-05-18T02:13:19.789Z,15.00
2019-05-18T02:15:48.674Z,15.00
2019-05-18T02:18:28.796Z,14.90
2019-05-18T02:20:47.266Z,15.00
2019-05-18T02:23:15.653Z,15.00
2019-05-18T02:25:44.162Z,15.00
2019-05-18T02:28:12.518Z,15.00
2019-05-18T02:30:40.872Z,15.00
2019-05-18T02:33:09.263Z,15.00
2019-05-18T02:35:37.549Z,15.00
2019-05-18T02:38:07.586Z,15.00
2019-05-18T02:40:36.108Z,15.00
2019-05-18T02:43:04.459Z,15.00
2019-05-18T02:45:32.860Z,15.00
2019-05-18T02:48:01.266Z,15.00
2019-05-18T02:50:29.680Z,15.00
2019-05-18T02:52:58.068Z,15.00
2019-05-18T02:55:26.482Z,14.90
2019-05-18T02:57:54.884Z,15.00
2019-05-18T03:00:23.475Z,15.00
2019-05-18T03:02:51.982Z,15.00
2019-05-18T03:05:20.365Z,15.00
2019-05-18T03:07:48.771Z,15.00
2019-05-18T03:10:17.240Z,15.00
2019-05-18T03:12:45.757Z,14.90
2019-05-18T03:15:14.104Z,14.90
2019-05-18T03:17:42.456Z,15.00
2019-05-18T03:20:10.798Z,14.90
2019-05-18T03:22:39.200Z,15.00
2019-05-18T03:25:07.636Z,14.90
2019-05-18T03:27:36.051Z,14.90
2019-05-18T03:30:06.355Z,14.90
2019-05-18T03:32:34.787Z,14.90
2019-05-18T03:35:03.276Z,15.00
2019-05-18T03:37:32.600Z,14.90
2019-05-18T03:40:00.953Z,15.00
2019-05-18T03:42:29.324Z,15.00
2019-05-18T03:44:57.695Z,15.00
2019-05-18T03:47:27.057Z,15.00
2019-05-18T03:49:55.538Z,15.00
2019-05-18T03:52:24.033Z,15.00
2019-05-18T03:54:52.781Z,15.00
2019-05-18T03:57:21.174Z,15.00
2019-05-18T03:59:49.604Z,15.00
2019-05-18T04:02:17.982Z,15.00
2019-05-18T04:04:46.319Z,15.00
2019-05-18T04:07:14.774Z,15.00
2019-05-18T04:09:43.123Z,15.00
2019-05-18T04:12:11.527Z,15.00
2019-05-18T04:14:39.983Z,15.00
2019-05-18T04:17:08.371Z,15.00
2019-05-18T04:19:46.412Z,15.00
2019-05-18T04:22:06.868Z,15.00
2019-05-18T04:24:35.302Z,15.00
2019-05-18T04:27:03.725Z,15.00
2019-05-18T04:29:32.217Z,15.00
2019-05-18T04:32:00.537Z,15.00
2019-05-18T04:34:28.934Z,15.10
2019-05-18T04:36:57.310Z,15.00
2019-05-18T04:39:25.724Z,15.00
2019-05-18T04:41:54.230Z,15.00
2019-05-18T04:44:22.591Z,15.00
2019-05-18T04:46:50.951Z,15.00
2019-05-18T04:49:19.369Z,15.10
2019-05-18T04:51:47.759Z,15.10
2019-05-18T04:54:16.178Z,15.10
2019-05-18T04:56:44.579Z,15.10
2019-05-18T04:59:12.980Z,15.10
2019-05-18T05:01:41.442Z,15.10
2019-05-18T05:04:10.735Z,15.10
2019-05-18T05:06:39.185Z,15.20
2019-05-18T05:09:08.658Z,15.20
2019-05-18T05:11:37.094Z,15.20
2019-05-18T05:14:05.566Z,15.20
2019-05-18T05:16:33.853Z,15.20
2019-05-18T05:19:02.174Z,15.30
2019-05-18T05:21:31.114Z,15.20
2019-05-18T05:23:59.589Z,15.30
2019-05-18T05:26:27.948Z,15.30
2019-05-18T05:28:56.274Z,15.30
2019-05-18T05:31:24.704Z,15.30
2019-05-18T05:33:53.120Z,15.20
2019-05-18T05:36:21.551Z,15.20
2019-05-18T05:38:49.957Z,15.20
2019-05-18T05:41:18.366Z,15.20
2019-05-18T05:43:46.792Z,15.30
2019-05-18T05:46:15.156Z,15.30
2019-05-18T05:48:43.441Z,15.20
2019-05-18T05:51:11.974Z,15.20
2019-05-18T05:53:40.441Z,15.30
2019-05-18T05:56:08.850Z,15.30
2019-05-18T05:58:37.272Z,15.30
2019-05-18T06:01:05.650Z,15.40
2019-05-18T06:03:34.090Z,15.40
2019-05-18T06:06:02.542Z,15.40
2019-05-18T06:08:30.887Z,15.40
2019-05-18T06:10:59.155Z,15.40
2019-05-18T06:13:27.570Z,15.50
2019-05-18T06:15:56.007Z,15.40
2019-05-18T06:18:24.411Z,15.40
2019-05-18T06:20:52.863Z,15.40
2019-05-18T06:23:21.311Z,15.50
2019-05-18T06:25:49.677Z,15.50
2019-05-18T06:28:18.021Z,15.50
2019-05-18T06:30:46.389Z,15.50
2019-05-18T06:33:14.833Z,15.60
2019-05-18T06:35:43.195Z,15.60
2019-05-18T06:38:11.483Z,15.60
2019-05-18T06:40:39.855Z,15.60
2019-05-18T06:43:08.262Z,15.60
2019-05-18T06:45:36.692Z,15.60
2019-05-18T06:48:05.180Z,15.60
2019-05-18T06:50:33.672Z,15.60
2019-05-18T06:53:02.080Z,15.70
2019-05-18T06:55:30.429Z,15.70
2019-05-18T06:57:58.910Z,15.70
2019-05-18T07:00:27.295Z,15.70
2019-05-18T07:02:55.790Z,15.70
2019-05-18T07:05:24.188Z,15.80
2019-05-18T07:07:52.548Z,15.90
2019-05-18T07:10:21.210Z,15.90
2019-05-18T07:12:49.730Z,16.00
2019-05-18T07:15:18.106Z,16.00
2019-05-18T07:17:46.502Z,16.10
2019-05-18T07:20:14.925Z,16.20
2019-05-18T07:22:43.319Z,16.30
2019-05-18T07:25:11.675Z,16.40
2019-05-18T07:27:40.141Z,16.30
2019-05-18T07:30:08.545Z,16.30
2019-05-18T07:32:37.269Z,16.30
2019-05-18T07:35:05.631Z,16.30
2019-05-18T07:37:34.520Z,16.40
2019-05-18T07:40:03.730Z,16.40
2019-05-18T07:42:32.123Z,16.30
2019-05-18T07:45:00.571Z,16.30
2019-05-18T07:47:29.107Z,16.40
2019-05-18T07:49:57.514Z,16.40
2019-05-18T07:52:25.864Z,16.40
2019-05-18T07:54:54.246Z,16.50
2019-05-18T07:57:22.636Z,16.40
2019-05-18T07:59:51.175Z,16.40
2019-05-18T08:02:19.554Z,16.40
2019-05-18T08:04:47.971Z,16.50
2019-05-18T08:07:16.249Z,16.40
2019-05-18T08:09:44.594Z,16.40
2019-05-18T08:12:14.050Z,16.40
2019-05-18T08:14:42.401Z,16.40
2019-05-18T08:17:10.768Z,16.40
2019-05-18T08:19:39.117Z,16.50
2019-05-18T08:22:07.409Z,16.50
2019-05-18T08:24:35.758Z,16.50
2019-05-18T08:27:04.150Z,16.50
2019-05-18T08:29:32.670Z,16.50
2019-05-18T08:32:01.025Z,16.50
2019-05-18T08:34:29.388Z,16.60
2019-05-18T08:36:57.833Z,16.60
2019-05-18T08:39:26.228Z,16.60
2019-05-18T08:41:54.578Z,16.60
2019-05-18T08:44:22.894Z,16.60
2019-05-18T08:46:51.263Z,16.60
2019-05-18T08:49:19.622Z,16.60
2019-05-18T08:51:48.002Z,16.70
2019-05-18T08:54:16.434Z,16.70
2019-05-18T08:56:44.832Z,16.70
2019-05-18T08:59:13.242Z,16.70
2019-05-18T09:01:41.659Z,16.70
2019-05-18T09:04:10.056Z,16.60
2019-05-18T09:06:38.464Z,16.70
2019-05-18T09:09:06.809Z,16.60
2019-05-18T09:11:36.251Z,16.60
2019-05-18T09:14:04.717Z,16.70
2019-05-18T09:16:33.195Z,16.70
2019-05-18T09:19:01.569Z,16.70
2019-05-18T09:21:30.014Z,16.70
2019-05-18T09:23:58.417Z,16.70
2019-05-18T09:26:26.852Z,16.80
2019-05-18T09:28:55.270Z,16.80
2019-05-18T09:31:23.667Z,16.80
2019-05-18T09:33:52.016Z,16.90
2019-05-18T09:36:20.407Z,16.90
2019-05-18T09:38:48.762Z,17.00
2019-05-18T09:41:17.107Z,17.00
2019-05-18T09:43:45.501Z,17.00
2019-05-18T09:46:13.941Z,17.00
2019-05-18T09:48:42.367Z,17.10
2019-05-18T09:51:10.923Z,17.10
2019-05-18T09:53:50.642Z,17.10
2019-05-18T09:56:09.483Z,17.10
2019-05-18T09:58:37.877Z,17.10
2019-05-18T10:01:06.483Z,17.20
2019-05-18T10:03:34.880Z,17.20
2019-05-18T10:06:03.303Z,17.30
2019-05-18T10:08:31.709Z,17.30
2019-05-18T10:11:00.115Z,17.40
2019-05-18T10:13:28.467Z,17.50
2019-05-18T10:15:56.910Z,17.40
2019-05-18T10:18:25.418Z,17.40
2019-05-18T10:20:53.842Z,17.50
2019-05-18T10:23:22.224Z,17.40
2019-05-18T10:25:50.587Z,17.40
2019-05-18T10:28:19.048Z,17.40
2019-05-18T10:30:47.456Z,17.40
2019-05-18T10:33:15.868Z,17.50
2019-05-18T10:35:44.162Z,17.50
2019-05-18T10:38:12.593Z,17.50
2019-05-18T10:40:41.003Z,17.50
2019-05-18T10:43:09.288Z,17.50
2019-05-18T10:45:39.721Z,17.50
2019-05-18T10:48:08.157Z,17.50
2019-05-18T10:50:36.508Z,17.60
2019-05-18T10:53:04.805Z,17.60
2019-05-18T10:55:33.200Z,17.70
2019-05-18T10:58:01.634Z,17.70
2019-05-18T11:00:30.060Z,17.80
2019-05-18T11:02:58.473Z,18.00
2019-05-18T11:05:26.862Z,18.10
2019-05-18T11:07:55.266Z,18.30
2019-05-18T11:10:24.352Z,18.30
2019-05-18T11:12:52.729Z,18.40
2019-05-18T11:15:21.259Z,18.40
2019-05-18T11:17:49.657Z,18.40
2019-05-18T11:20:18.104Z,18.30
2019-05-18T11:22:46.517Z,18.20
2019-05-18T11:25:14.880Z,18.20
2019-05-18T11:27:43.483Z,18.00
2019-05-18T11:30:12.098Z,17.90
2019-05-18T11:32:40.558Z,17.80
2019-05-18T11:35:09.031Z,17.80
2019-05-18T11:37:37.401Z,17.70
2019-05-18T11:40:07.204Z,17.60
2019-05-18T11:42:35.535Z,17.40
2019-05-18T11:45:06.806Z,17.30
2019-05-18T11:47:35.202Z,17.30
2019-05-18T11:50:05.261Z,17.10
2019-05-18T11:52:33.724Z,17.10
2019-05-18T11:55:02.131Z,17.10
2019-05-18T11:57:30.590Z,17.00
2019-05-18T11:59:59.025Z,16.80
2019-05-18T12:02:27.526Z,16.70
2019-05-18T12:04:56.200Z,16.70
2019-05-18T12:07:24.765Z,16.70
2019-05-18T12:09:53.179Z,16.70
2019-05-18T12:12:21.605Z,16.70
2019-05-18T12:14:50.023Z,16.70
2019-05-18T12:17:18.432Z,16.70
2019-05-18T12:19:46.784Z,16.70
2019-05-18T12:22:15.180Z,16.70
2019-05-18T12:24:43.650Z,16.60
2019-05-18T12:27:12.025Z,16.70
2019-05-18T12:29:40.444Z,16.80
2019-05-18T12:32:08.872Z,16.90
2019-05-18T12:34:37.331Z,17.00
2019-05-18T12:37:05.712Z,17.10
2019-05-18T12:39:34.161Z,17.20
2019-05-18T12:42:02.524Z,17.30
2019-05-18T12:44:30.917Z,17.40
2019-05-18T12:46:59.328Z,17.40
2019-05-18T12:49:27.681Z,17.50
2019-05-18T12:51:56.127Z,17.60
2019-05-18T12:54:30.869Z,17.60
2019-05-18T12:56:54.570Z,17.70
2019-05-18T12:59:22.969Z,17.80
2019-05-18T13:01:51.404Z,17.80
2019-05-18T13:04:19.812Z,17.80
2019-05-18T13:06:48.255Z,18.00
2019-05-18T13:09:16.825Z,18.00
2019-05-18T13:11:45.241Z,18.10
2019-05-18T13:14:13.600Z,18.20
2019-05-18T13:16:42.019Z,18.30
2019-05-18T13:19:10.452Z,18.30
2019-05-18T13:21:38.839Z,18.40
2019-05-18T13:24:07.239Z,18.50
2019-05-18T13:26:35.720Z,18.60
2019-05-18T13:29:04.086Z,18.60
2019-05-18T13:31:32.469Z,18.60
2019-05-18T13:34:00.869Z,18.50
2019-05-18T13:36:29.274Z,18.30
2019-05-18T13:38:57.685Z,18.20
2019-05-18T13:41:26.133Z,18.00
2019-05-18T13:43:54.495Z,17.90
2019-05-18T13:46:22.892Z,17.80
2019-05-18T13:48:51.329Z,17.80
2019-05-18T13:51:19.799Z,17.70
2019-05-18T13:53:48.208Z,17.70
2019-05-18T13:56:16.593Z,17.50
2019-05-18T13:58:44.999Z,17.50
2019-05-18T14:01:13.355Z,17.50
2019-05-18T14:03:41.752Z,17.50
2019-05-18T14:06:10.056Z,17.60
2019-05-18T14:08:38.473Z,17.70
2019-05-18T14:11:06.888Z,17.70
2019-05-18T14:13:35.350Z,17.70
2019-05-18T14:16:03.816Z,17.70
2019-05-18T14:18:32.208Z,17.70
2019-05-18T14:21:00.561Z,17.70
2019-05-18T14:23:29.924Z,17.70
2019-05-18T14:25:58.291Z,17.70
2019-05-18T14:28:26.659Z,17.70
2019-05-18T14:30:55.076Z,17.70
2019-05-18T14:33:23.516Z,17.70
2019-05-18T14:35:51.882Z,17.70
2019-05-18T14:38:20.349Z,17.70
2019-05-18T14:40:48.745Z,17.50
2019-05-18T14:43:17.136Z,17.50
2019-05-18T14:45:48.909Z,17.50
2019-05-18T14:48:15.588Z,17.50
2019-05-18T14:50:43.881Z,17.60
2019-05-18T14:53:12.261Z,17.50
2019-05-18T14:55:40.730Z,17.60
2019-05-18T14:58:09.226Z,17.70
2019-05-18T15:00:37.668Z,17.70
2019-05-18T15:03:06.031Z,17.80
2019-05-18T15:05:34.510Z,17.90
2019-05-18T15:08:03.002Z,18.00
2019-05-18T15:10:31.360Z,18.10
2019-05-18T15:12:59.648Z,18.30
2019-05-18T15:15:31.295Z,18.30
2019-05-18T15:17:59.665Z,18.40
2019-05-18T15:20:28.111Z,18.50
2019-05-18T15:22:56.590Z,18.50
2019-05-18T15:25:24.945Z,18.40
2019-05-18T15:27:53.388Z,18.40
2019-05-18T15:30:21.744Z,18.30
2019-05-18T15:32:50.181Z,18.20
2019-05-18T15:35:18.600Z,18.20
2019-05-18T15:37:46.968Z,18.10
2019-05-18T15:40:15.323Z,18.20
2019-05-18T15:42:43.848Z,18.20
2019-05-18T15:45:12.586Z,18.20
2019-05-18T15:47:40.934Z,18.20
2019-05-18T15:50:09.380Z,18.20
2019-05-18T15:52:37.750Z,18.20
2019-05-18T15:55:07.092Z,18.20
2019-05-18T15:57:35.585Z,18.20
2019-05-18T16:00:06.765Z,18.20
2019-05-18T16:02:35.354Z,18.10
2019-05-18T16:05:03.855Z,18.10
2019-05-18T16:07:32.180Z,18.10
2019-05-18T16:10:00.676Z,18.20
2019-05-18T16:12:29.069Z,18.10
2019-05-18T16:14:57.347Z,18.00
2019-05-18T16:17:38.322Z,18.00
2019-05-18T16:19:55.735Z,17.90
2019-05-18T16:22:24.094Z,17.90
2019-05-18T16:24:52.498Z,17.90
2019-05-18T16:27:20.880Z,17.80
2019-05-18T16:29:49.285Z,17.80
2019-05-18T16:32:18.739Z,17.80
2019-05-18T16:34:47.161Z,17.70
2019-05-18T16:37:15.585Z,17.70
2019-05-18T16:39:43.958Z,17.70
2019-05-18T16:42:12.329Z,17.70
2019-05-18T16:44:40.692Z,17.60
2019-05-18T16:47:09.124Z,17.60
2019-05-18T16:49:37.572Z,17.60
2019-05-18T16:52:05.994Z,17.60
2019-05-18T16:54:34.506Z,17.50
2019-05-18T16:57:03.066Z,17.50
2019-05-18T16:59:31.455Z,17.50
2019-05-18T17:01:59.785Z,17.50
2019-05-18T17:04:28.178Z,17.50
2019-05-18T17:06:56.592Z,17.40
2019-05-18T17:09:25.021Z,17.40
2019-05-18T17:11:53.471Z,17.30
2019-05-18T17:14:21.846Z,17.30
2019-05-18T17:16:50.262Z,17.30
2019-05-18T17:19:18.646Z,17.30
2019-05-18T17:21:47.018Z,17.30
2019-05-18T17:24:15.438Z,17.30
2019-05-18T17:26:52.250Z,17.20
2019-05-18T17:29:13.903Z,17.10
2019-05-18T17:31:42.298Z,17.00
2019-05-18T17:34:10.690Z,17.00
2019-05-18T17:36:39.090Z,17.00
2019-05-18T17:39:07.513Z,17.00
2019-05-18T17:41:35.844Z,16.90
2019-05-18T17:44:04.175Z,16.90
2019-05-18T17:46:32.557Z,16.90
2019-05-18T17:49:01.014Z,16.90
2019-05-18T17:51:29.372Z,16.80
2019-05-18T17:53:57.790Z,16.80
2019-05-18T17:56:26.194Z,16.90
2019-05-18T17:58:54.578Z,16.90
2019-05-18T18:01:22.936Z,16.80
2019-05-18T18:03:51.337Z,16.90
2019-05-18T18:06:19.749Z,16.90
2019-05-18T18:08:48.183Z,16.90
2019-05-18T18:11:16.583Z,16.90
2019-05-18T18:13:44.867Z,16.90
2019-05-18T18:16:13.397Z,16.90
2019-05-18T18:18:41.748Z,16.90
2019-05-18T18:21:10.150Z,16.80
2019-05-18T18:23:38.552Z,16.70
2019-05-18T18:26:07.030Z,16.60
2019-05-18T18:28:35.487Z,16.40
2019-05-18T18:31:03.954Z,16.30
2019-05-18T18:33:32.339Z,16.10
2019-05-18T18:36:00.739Z,16.10
2019-05-18T18:38:29.127Z,16.10
2019-05-18T18:40:58.458Z,16.10
2019-05-18T18:43:27.409Z,16.00
2019-05-18T18:45:55.954Z,15.90
2019-05-18T18:48:26.525Z,15.90
2019-05-18T18:50:54.940Z,16.00
2019-05-18T18:53:23.613Z,15.90
2019-05-18T18:55:52.487Z,16.00
2019-05-18T18:58:21.728Z,16.00
2019-05-18T19:00:51.232Z,16.00
2019-05-18T19:03:20.168Z,15.80
2019-05-18T19:05:49.148Z,15.90
2019-05-18T19:08:18.076Z,15.90
2019-05-18T19:10:47.007Z,15.90
2019-05-18T19:13:15.923Z,15.90
2019-05-18T19:15:44.855Z,15.80
2019-05-18T19:18:14.538Z,15.80
2019-05-18T19:20:43.914Z,15.80
2019-05-18T19:23:12.574Z,15.80
2019-05-18T19:25:42.593Z,15.80
2019-05-18T19:28:11.694Z,15.80
2019-05-18T19:30:40.736Z,15.80
2019-05-18T19:33:09.945Z,15.80
2019-05-18T19:35:39.040Z,15.80
2019-05-18T19:38:08.332Z,15.80
2019-05-18T19:40:37.848Z,15.80
2019-05-18T19:43:07.250Z,15.90
2019-05-18T19:45:36.493Z,15.90
2019-05-18T19:48:05.815Z,15.90
2019-05-18T19:50:35.040Z,15.90
2019-05-18T19:53:04.001Z,15.90
2019-05-18T19:55:33.518Z,15.80
2019-05-18T19:58:21.928Z,15.80
2019-05-18T20:00:51.538Z,15.80
2019-05-18T20:03:21.542Z,15.80
2019-05-18T20:05:50.886Z,15.70
2019-05-18T20:08:21.264Z,15.70
2019-05-18T20:10:50.162Z,15.60
2019-05-18T20:13:19.026Z,15.70
2019-05-18T20:15:48.016Z,15.70
2019-05-18T20:18:16.953Z,15.70
2019-05-18T20:20:45.939Z,15.70
2019-05-18T20:23:14.856Z,15.70
2019-05-18T20:25:43.814Z,15.70
2019-05-18T20:28:23.342Z,15.70
2019-05-18T20:33:31.071Z,15.70
2019-05-18T20:35:59.516Z,15.70
2019-05-18T20:38:27.925Z,15.70
2019-05-18T20:40:56.396Z,15.70
2019-05-18T20:43:24.873Z,15.60
2019-05-18T20:45:53.247Z,15.70
2019-05-18T20:48:21.699Z,15.80
2019-05-18T20:50:50.248Z,15.70
2019-05-18T20:53:18.710Z,15.60
2019-05-18T20:55:47.247Z,15.50
2019-05-18T20:58:15.666Z,15.50
2019-05-18T21:00:44.168Z,15.50
2019-05-18T21:03:13.541Z,15.50
2019-05-18T21:05:41.894Z,15.40
2019-05-18T21:08:11.425Z,15.40
2019-05-18T21:10:39.844Z,15.40
2019-05-18T21:13:08.235Z,15.40
2019-05-18T21:15:36.669Z,15.40
2019-05-18T21:18:05.029Z,15.40
2019-05-18T21:20:33.398Z,15.40
2019-05-18T21:23:01.809Z,15.50
2019-05-18T21:25:30.199Z,15.50
2019-05-18T21:27:58.550Z,15.60
2019-05-18T21:30:27.033Z,15.60
2019-05-18T21:32:55.387Z,15.60
2019-05-18T21:35:23.832Z,15.50
2019-05-18T21:37:52.261Z,15.50
2019-05-18T21:40:20.661Z,15.40
2019-05-18T21:42:49.124Z,15.40
2019-05-18T21:45:17.505Z,15.40
2019-05-18T21:47:45.906Z,15.40
2019-05-18T21:50:14.398Z,15.40
2019-05-18T21:52:43.908Z,15.40
2019-05-18T21:55:12.329Z,15.40
2019-05-18T21:57:40.734Z,15.30
2019-05-18T22:00:09.295Z,15.30
2019-05-18T22:02:37.715Z,15.40
2019-05-18T22:05:06.717Z,15.40
2019-05-18T22:07:35.149Z,15.40
2019-05-18T22:10:08.708Z,15.40
2019-05-18T22:12:37.072Z,15.40
2019-05-18T22:15:06.723Z,15.30
2019-05-18T22:17:36.812Z,15.40
2019-05-18T22:20:08.203Z,15.30
2019-05-18T22:22:36.601Z,15.30
2019-05-18T22:25:05.134Z,15.20
2019-05-18T22:27:33.545Z,15.20
2019-05-18T22:30:01.980Z,15.30
2019-05-18T22:32:30.445Z,15.20
2019-05-18T22:34:58.870Z,15.20
2019-05-18T22:37:27.263Z,15.20
2019-05-18T22:39:55.661Z,15.10
2019-05-18T22:42:24.374Z,15.10
2019-05-18T22:44:52.772Z,15.00
2019-05-18T22:47:21.154Z,15.00
2019-05-18T22:49:49.560Z,15.00
2019-05-18T22:52:17.954Z,15.00
2019-05-18T22:54:46.454Z,15.00
2019-05-18T22:57:14.861Z,15.00
2019-05-18T22:59:43.261Z,15.00
2019-05-18T23:02:11.644Z,15.00
2019-05-18T23:04:40.046Z,14.90
2019-05-18T23:07:08.517Z,14.80
2019-05-18T23:09:37.005Z,14.80
2019-05-18T23:12:05.341Z,14.80
2019-05-18T23:14:33.726Z,14.80
2019-05-18T23:17:02.321Z,14.70
2019-05-18T23:19:30.666Z,14.70
2019-05-18T23:21:59.032Z,14.70
2019-05-18T23:24:27.453Z,14.70
2019-05-18T23:26:55.817Z,14.70
2019-05-18T23:29:24.196Z,14.70
2019-05-18T23:31:52.648Z,14.60
2019-05-18T23:34:20.999Z,14.60
2019-05-18T23:36:49.341Z,14.70
2019-05-18T23:39:17.776Z,14.70
2019-05-18T23:41:46.226Z,14.60
2019-05-18T23:44:14.618Z,14.60
2019-05-18T23:46:43.056Z,14.60
2019-05-18T23:49:11.555Z,14.60
2019-05-18T23:51:39.889Z,14.60
2019-05-18T23:54:08.298Z,14.60
2019-05-18T23:56:36.750Z,14.60
2019-05-18T23:59:05.373Z,14.60
